createdAt,value
2022-07-30T00:01:17.335Z,98927.41
2022-07-30T00:03:44.682Z,98914.34
2022-07-30T00:06:11.433Z,98907.28
2022-07-30T00:08:38.173Z,98915.72
2022-07-30T00:11:04.808Z,98910.25
2022-07-30T00:13:31.535Z,98911.06
2022-07-30T00:15:58.195Z,98904.63
2022-07-30T00:18:24.887Z,98907.00
2022-07-30T00:20:51.980Z,98909.41
2022-07-30T00:23:18.711Z,98905.47
2022-07-30T00:25:45.638Z,98902.84
2022-07-30T00:28:12.490Z,98901.19
2022-07-30T00:30:40.549Z,98900.16
2022-07-30T00:33:08.333Z,98890.13
2022-07-30T00:35:37.203Z,98888.75
2022-07-30T00:38:03.907Z,98890.59
2022-07-30T00:40:30.718Z,98887.59
2022-07-30T00:42:57.439Z,98887.28
2022-07-30T00:45:24.184Z,98880.09
2022-07-30T00:47:50.948Z,98885.88
2022-07-30T00:50:17.739Z,98878.72
2022-07-30T00:52:45.655Z,98880.53
2022-07-30T00:55:15.238Z,98873.31
2022-07-30T00:57:43.283Z,98875.56
2022-07-30T01:00:14.169Z,98872.78
2022-07-30T01:02:40.985Z,98862.75
2022-07-30T01:05:08.860Z,98859.72
2022-07-30T01:07:35.807Z,98862.44
2022-07-30T01:10:06.875Z,98856.56
2022-07-30T01:12:34.302Z,98858.03
2022-07-30T01:15:05.120Z,98855.81
2022-07-30T01:17:32.317Z,98853.47
2022-07-30T01:20:42.152Z,98873.56
2022-07-30T01:23:21.562Z,98869.44
2022-07-30T01:26:04.811Z,98863.03
2022-07-30T01:28:39.175Z,98865.84
2022-07-30T01:31:07.894Z,98863.25
2022-07-30T01:33:40.846Z,98855.91
2022-07-30T01:36:11.307Z,98864.00
2022-07-30T01:38:40.691Z,98868.53
2022-07-30T01:41:09.139Z,98868.88
2022-07-30T01:43:36.471Z,98875.75
2022-07-30T01:46:04.417Z,98871.50
2022-07-30T01:48:35.723Z,98873.84
2022-07-30T01:51:07.238Z,98868.09
2022-07-30T01:53:37.883Z,98868.31
2022-07-30T01:56:10.736Z,98886.34
2022-07-30T01:58:40.045Z,98881.72
2022-07-30T02:01:07.480Z,98879.94
2022-07-30T02:03:35.478Z,98879.22
2022-07-30T02:06:28.096Z,98885.47
2022-07-30T02:08:58.679Z,98878.16
2022-07-30T02:12:04.159Z,98879.75
2022-07-30T02:14:50.824Z,98883.47
2022-07-30T02:17:30.028Z,98886.78
2022-07-30T02:19:58.987Z,98884.47
2022-07-30T02:22:34.459Z,98886.19
2022-07-30T02:25:02.942Z,98887.25
2022-07-30T02:27:32.249Z,98884.66
2022-07-30T02:30:01.899Z,98880.72
2022-07-30T02:32:36.460Z,98882.63
2022-07-30T02:35:11.748Z,98886.59
2022-07-30T02:37:43.802Z,98880.16
2022-07-30T02:40:18.460Z,98884.75
2022-07-30T02:42:49.662Z,98883.53
2022-07-30T02:45:17.809Z,98879.81
2022-07-30T02:47:48.247Z,98886.00
2022-07-30T02:50:49.770Z,98884.75
2022-07-30T02:53:49.950Z,98893.34
2022-07-30T02:56:21.423Z,98893.97
2022-07-30T02:58:50.350Z,98891.69
2022-07-30T03:01:21.660Z,98896.94
2022-07-30T03:03:49.639Z,98891.22
2022-07-30T03:06:18.194Z,98895.44
2022-07-30T03:08:45.876Z,98892.34
2022-07-30T03:11:14.116Z,98894.47
2022-07-30T03:13:40.960Z,98887.72
2022-07-30T03:16:10.199Z,98895.09
2022-07-30T03:18:39.071Z,98890.72
2022-07-30T03:21:09.993Z,98881.28
2022-07-30T03:23:38.041Z,98898.94
2022-07-30T03:26:08.567Z,98893.94
2022-07-30T03:28:39.403Z,98898.94
2022-07-30T03:31:07.544Z,98901.16
2022-07-30T03:33:38.665Z,98904.38
2022-07-30T03:36:07.817Z,98901.78
2022-07-30T03:38:37.865Z,98905.91
2022-07-30T03:41:06.841Z,98901.66
2022-07-30T03:43:34.972Z,98908.00
2022-07-30T03:46:04.353Z,98902.38
2022-07-30T03:48:34.006Z,98903.50
2022-07-30T03:51:03.846Z,98905.84
2022-07-30T03:53:31.931Z,98912.81
2022-07-30T03:55:59.629Z,98905.66
2022-07-30T03:58:26.779Z,98914.47
2022-07-30T04:00:57.850Z,98902.84
2022-07-30T04:03:31.848Z,98912.97
2022-07-30T04:05:59.707Z,98909.81
2022-07-30T04:08:27.922Z,98915.25
2022-07-30T04:10:55.165Z,98927.22
2022-07-30T04:13:22.069Z,98921.72
2022-07-30T04:16:05.123Z,98926.69
2022-07-30T04:18:54.468Z,98930.00
2022-07-30T04:21:25.272Z,98934.03
2022-07-30T04:24:02.132Z,98938.81
2022-07-30T04:26:34.677Z,98940.69
2022-07-30T04:29:05.938Z,98941.22
2022-07-30T04:31:40.650Z,98940.69
2022-07-30T04:34:08.442Z,98950.63
2022-07-30T04:36:39.066Z,98943.41
2022-07-30T04:39:05.943Z,98946.66
2022-07-30T04:41:33.498Z,98946.88
2022-07-30T04:44:18.962Z,98950.38
2022-07-30T04:46:47.361Z,98952.44
2022-07-30T04:49:17.757Z,98956.59
2022-07-30T04:51:45.774Z,98963.81
2022-07-30T04:54:16.314Z,98963.94
2022-07-30T04:56:52.521Z,98967.22
2022-07-30T04:59:28.355Z,98966.34
2022-07-30T05:01:58.822Z,98981.66
2022-07-30T05:04:26.466Z,98977.50
2022-07-30T05:06:54.747Z,98977.50
2022-07-30T05:09:22.557Z,98971.88
2022-07-30T05:11:54.074Z,98978.03
2022-07-30T05:14:22.292Z,98987.50
2022-07-30T05:16:49.970Z,98984.81
2022-07-30T05:19:18.694Z,98981.66
2022-07-30T05:21:46.103Z,98978.34
2022-07-30T05:24:12.972Z,98985.13
2022-07-30T05:26:40.200Z,98984.72
2022-07-30T05:29:08.238Z,98972.81
2022-07-30T05:31:35.897Z,98980.78
2022-07-30T05:34:05.197Z,98976.28
2022-07-30T05:36:32.003Z,98981.41
2022-07-30T05:38:58.765Z,98979.66
2022-07-30T05:41:32.617Z,98985.47
2022-07-30T05:44:00.651Z,98985.50
2022-07-30T05:46:28.519Z,98989.22
2022-07-30T05:48:55.374Z,98986.53
2022-07-30T05:51:22.462Z,98987.84
2022-07-30T05:53:50.598Z,98991.88
2022-07-30T05:56:17.684Z,98993.88
2022-07-30T05:58:44.659Z,99000.25
2022-07-30T06:01:12.032Z,98989.50
2022-07-30T06:03:39.299Z,98993.00
2022-07-30T06:06:07.799Z,98990.75
2022-07-30T06:08:35.510Z,98993.97
2022-07-30T06:11:02.474Z,98988.69
2022-07-30T06:13:29.276Z,98993.03
2022-07-30T06:15:56.659Z,98993.84
2022-07-30T06:18:23.601Z,99000.66
2022-07-30T06:20:54.705Z,98996.28
2022-07-30T06:23:22.992Z,98991.31
2022-07-30T06:25:50.846Z,98993.47
2022-07-30T06:31:06.903Z,98996.53
2022-07-30T06:33:33.910Z,98993.75
2022-07-30T06:36:00.579Z,98990.81
2022-07-30T06:38:28.382Z,98999.44
2022-07-30T06:40:58.133Z,98996.75
2022-07-30T06:43:27.906Z,99003.34
2022-07-30T06:45:54.680Z,99004.81
2022-07-30T06:48:21.668Z,99005.03
2022-07-30T06:50:48.381Z,98998.66
2022-07-30T06:53:15.005Z,99001.91
2022-07-30T06:55:41.655Z,99005.78
2022-07-30T06:58:08.310Z,99002.41
2022-07-30T07:00:35.747Z,99017.88
2022-07-30T07:03:02.389Z,99003.97
2022-07-30T07:05:29.169Z,99001.91
2022-07-30T07:07:59.666Z,99006.59
2022-07-30T07:10:27.249Z,99009.97
2022-07-30T07:12:54.635Z,99009.22
2022-07-30T07:15:22.351Z,99012.75
2022-07-30T07:18:04.849Z,99008.03
2022-07-30T07:20:32.198Z,99011.34
2022-07-30T07:22:59.495Z,99019.00
2022-07-30T07:25:26.296Z,99011.25
2022-07-30T07:28:11.809Z,99013.47
2022-07-30T07:30:43.960Z,99015.13
2022-07-30T07:33:11.944Z,99021.47
2022-07-30T07:35:40.395Z,99022.84
2022-07-30T07:38:16.357Z,99016.72
2022-07-30T07:40:43.135Z,99008.38
2022-07-30T07:43:09.761Z,99005.59
2022-07-30T07:45:36.415Z,99010.06
2022-07-30T07:48:03.125Z,99003.41
2022-07-30T07:50:30.231Z,99003.66
2022-07-30T07:52:56.890Z,99011.41
2022-07-30T07:55:24.650Z,99014.44
2022-07-30T07:57:52.753Z,99008.53
2022-07-30T08:00:20.865Z,99012.66
2022-07-30T08:02:48.704Z,99016.38
2022-07-30T08:05:16.379Z,99012.56
2022-07-30T08:07:44.702Z,99021.59
2022-07-30T08:10:13.935Z,99014.25
2022-07-30T08:12:40.669Z,99013.63
2022-07-30T08:15:09.420Z,99016.53
2022-07-30T08:17:43.884Z,99014.13
2022-07-30T08:20:12.666Z,99009.25
2022-07-30T08:22:40.051Z,99014.59
2022-07-30T08:25:07.716Z,99014.19
2022-07-30T08:27:34.604Z,99018.00
2022-07-30T08:30:09.503Z,99013.50
2022-07-30T08:32:37.417Z,99019.06
2022-07-30T08:35:05.576Z,99020.72
2022-07-30T08:37:34.117Z,99027.97
2022-07-30T08:40:00.901Z,99027.41
2022-07-30T08:42:28.768Z,99024.91
2022-07-30T08:44:56.556Z,99020.44
2022-07-30T08:47:31.576Z,99025.66
2022-07-30T08:50:05.249Z,99025.97
2022-07-30T08:52:34.545Z,99032.22
2022-07-30T08:55:01.820Z,99025.69
2022-07-30T08:57:33.703Z,99028.97
2022-07-30T09:00:01.914Z,99036.28
2022-07-30T09:02:31.727Z,99035.44
2022-07-30T09:05:00.452Z,99036.25
2022-07-30T09:07:27.250Z,99031.78
2022-07-30T09:09:53.908Z,99035.31
2022-07-30T09:12:35.275Z,99028.31
2022-07-30T09:15:19.252Z,99039.47
2022-07-30T09:18:03.198Z,99046.44
2022-07-30T09:20:32.633Z,99045.41
2022-07-30T09:23:03.935Z,99042.19
2022-07-30T09:25:48.082Z,99048.09
2022-07-30T09:28:16.357Z,99039.22
2022-07-30T09:30:54.524Z,99036.03
2022-07-30T09:33:37.319Z,99047.88
2022-07-30T09:36:07.064Z,99039.19
2022-07-30T09:38:54.149Z,99036.41
2022-07-30T09:41:40.456Z,99033.16
2022-07-30T09:44:07.510Z,99041.31
2022-07-30T09:46:50.905Z,99036.78
2022-07-30T09:49:20.233Z,99037.63
2022-07-30T09:51:56.493Z,99042.53
2022-07-30T09:54:50.686Z,99045.31
2022-07-30T09:57:26.488Z,99038.78
2022-07-30T10:00:01.143Z,99038.06
2022-07-30T10:02:32.336Z,99040.47
2022-07-30T10:05:15.303Z,99046.13
2022-07-30T10:07:51.332Z,99045.75
2022-07-30T10:10:25.742Z,99051.69
2022-07-30T10:13:01.070Z,99055.28
2022-07-30T10:15:34.824Z,99053.44
2022-07-30T10:18:06.376Z,99052.13
2022-07-30T10:20:35.091Z,99056.91
2022-07-30T10:23:07.945Z,99051.34
2022-07-30T10:25:49.187Z,99047.53
2022-07-30T10:28:24.565Z,99053.63
2022-07-30T10:30:54.811Z,99047.91
2022-07-30T10:33:34.688Z,99052.66
2022-07-30T10:36:04.886Z,99052.16
2022-07-30T10:38:39.508Z,99049.09
2022-07-30T10:41:54.666Z,99044.75
2022-07-30T10:44:47.713Z,99047.00
2022-07-30T10:47:18.701Z,99043.53
2022-07-30T10:50:10.574Z,99046.50
2022-07-30T10:52:54.546Z,99050.97
2022-07-30T10:55:36.539Z,99052.66
2022-07-30T10:58:12.530Z,99046.06
2022-07-30T11:00:51.478Z,99046.34
2022-07-30T11:03:40.423Z,99043.34
2022-07-30T11:06:26.766Z,99039.25
2022-07-30T11:08:57.096Z,99041.88
2022-07-30T11:12:01.920Z,99039.09
2022-07-30T11:14:46.049Z,99030.31
2022-07-30T11:17:17.229Z,99030.66
2022-07-30T11:20:06.882Z,99026.53
2022-07-30T11:22:41.125Z,99030.31
2022-07-30T11:25:49.885Z,99031.34
2022-07-30T11:28:36.907Z,99024.31
2022-07-30T11:31:54.963Z,99019.00
2022-07-30T11:34:18.279Z,99010.25
2022-07-30T11:37:21.562Z,99019.53
2022-07-30T11:40:01.902Z,99020.78
2022-07-30T11:42:32.151Z,99016.84
2022-07-30T11:45:17.937Z,99020.81
2022-07-30T11:47:48.613Z,99037.19
2022-07-30T11:50:21.378Z,99026.13
2022-07-30T11:52:52.966Z,99023.41
2022-07-30T11:55:32.597Z,99011.97
2022-07-30T11:58:01.578Z,99012.63
2022-07-30T12:00:41.359Z,99018.03
2022-07-30T12:03:11.325Z,99016.59
2022-07-30T12:05:38.363Z,99006.44
2022-07-30T12:08:05.466Z,99010.44
2022-07-30T12:10:32.286Z,99015.06
2022-07-30T12:13:16.571Z,99009.91
2022-07-30T12:15:46.573Z,99008.63
2022-07-30T12:18:26.280Z,99007.13
2022-07-30T12:20:59.629Z,99012.16
2022-07-30T12:23:27.833Z,99009.19
2022-07-30T12:25:55.101Z,99006.44
2022-07-30T12:28:28.371Z,99001.38
2022-07-30T12:30:57.589Z,99007.19
2022-07-30T12:33:25.174Z,99001.72
2022-07-30T12:36:00.910Z,98999.16
2022-07-30T12:38:28.921Z,99000.25
2022-07-30T12:40:57.733Z,98994.34
2022-07-30T12:43:45.133Z,99005.78
2022-07-30T12:46:16.485Z,98994.13
2022-07-30T12:49:21.245Z,98990.69
2022-07-30T12:51:59.542Z,98987.44
2022-07-30T12:54:29.179Z,98984.13
2022-07-30T12:57:05.788Z,98977.19
2022-07-30T12:59:33.805Z,98971.25
2022-07-30T13:02:01.274Z,98986.13
2022-07-30T13:04:29.011Z,98979.81
2022-07-30T13:07:11.744Z,98973.25
2022-07-30T13:09:41.377Z,98982.59
2022-07-30T13:12:18.250Z,98974.69
2022-07-30T13:14:46.528Z,98978.38
2022-07-30T13:17:14.142Z,98978.38
2022-07-30T13:19:44.997Z,98973.63
2022-07-30T13:22:21.966Z,98968.66
2022-07-30T13:24:49.771Z,98974.44
2022-07-30T13:27:18.222Z,98982.13
2022-07-30T13:29:45.419Z,98980.03
2022-07-30T13:32:18.122Z,98978.66
2022-07-30T13:34:45.264Z,98976.69
2022-07-30T13:37:12.080Z,98984.66
2022-07-30T13:39:39.041Z,98983.44
2022-07-30T13:42:06.093Z,98986.97
2022-07-30T13:44:32.956Z,98988.63
2022-07-30T13:47:01.864Z,98976.00
2022-07-30T13:49:29.177Z,98977.50
2022-07-30T13:51:57.336Z,98973.94
2022-07-30T13:54:24.355Z,98967.25
2022-07-30T13:56:52.276Z,98976.75
2022-07-30T13:59:19.080Z,98969.84
2022-07-30T14:01:45.923Z,98971.34
2022-07-30T14:04:13.129Z,98964.25
2022-07-30T14:06:40.243Z,98957.72
2022-07-30T14:09:07.053Z,98961.47
2022-07-30T14:11:33.840Z,98949.59
2022-07-30T14:14:00.571Z,98958.44
2022-07-30T14:16:55.646Z,98946.72
2022-07-30T14:19:24.217Z,98952.72
2022-07-30T14:21:53.706Z,98958.22
2022-07-30T14:24:21.969Z,98952.56
2022-07-30T14:26:58.552Z,98964.28
2022-07-30T14:29:26.975Z,98961.44
2022-07-30T14:31:54.682Z,98954.09
2022-07-30T14:34:21.524Z,98956.41
2022-07-30T14:36:48.262Z,98955.63
2022-07-30T14:39:15.079Z,98958.03
2022-07-30T14:41:43.035Z,98944.97
2022-07-30T14:44:12.115Z,98957.00
2022-07-30T14:46:52.245Z,98948.31
2022-07-30T14:49:20.546Z,98952.69
2022-07-30T14:51:47.532Z,98950.91
2022-07-30T14:54:14.365Z,98954.63
2022-07-30T14:56:41.699Z,98959.75
2022-07-30T14:59:08.670Z,98958.28
2022-07-30T15:01:35.546Z,98965.16
2022-07-30T15:04:02.623Z,98968.19
2022-07-30T15:06:29.380Z,98960.34
2022-07-30T15:08:56.123Z,98960.69
2022-07-30T15:11:22.965Z,98956.38
2022-07-30T15:13:50.797Z,98958.69
2022-07-30T15:16:19.026Z,98959.97
2022-07-30T15:18:46.811Z,98963.06
2022-07-30T15:21:13.841Z,98966.03
2022-07-30T15:23:40.683Z,98964.50
2022-07-30T15:26:07.483Z,98953.50
2022-07-30T15:28:34.404Z,98964.50
2022-07-30T15:31:01.167Z,98968.03
2022-07-30T15:33:27.872Z,98965.84
2022-07-30T15:35:54.577Z,98968.78
2022-07-30T15:38:22.808Z,98968.22
2022-07-30T15:40:49.730Z,98966.03
2022-07-30T15:43:17.025Z,98971.72
2022-07-30T15:45:52.464Z,98974.66
2022-07-30T15:48:26.448Z,98971.50
2022-07-30T15:51:03.834Z,98975.91
2022-07-30T15:53:31.882Z,98971.47
2022-07-30T15:55:59.855Z,98985.22
2022-07-30T15:58:27.065Z,98981.50
2022-07-30T16:00:54.032Z,98988.59
2022-07-30T16:03:21.256Z,98984.63
2022-07-30T16:05:51.437Z,98983.28
2022-07-30T16:08:20.491Z,98975.50
2022-07-30T16:10:47.825Z,98971.22
2022-07-30T16:13:14.728Z,98975.22
2022-07-30T16:15:41.622Z,98976.38
2022-07-30T16:18:08.405Z,98970.97
2022-07-30T16:20:35.308Z,98966.75
2022-07-30T16:23:02.159Z,98973.19
2022-07-30T16:25:28.972Z,98964.59
2022-07-30T16:27:55.684Z,98969.31
2022-07-30T16:30:24.289Z,98962.13
2022-07-30T16:32:56.182Z,98957.72
2022-07-30T16:35:23.356Z,98960.38
2022-07-30T16:37:50.975Z,98953.06
2022-07-30T16:40:17.760Z,98963.44
2022-07-30T16:42:44.568Z,98961.81
2022-07-30T16:45:11.836Z,98964.50
2022-07-30T16:47:38.814Z,98969.97
2022-07-30T16:50:06.361Z,98975.63
2022-07-30T16:52:33.145Z,98959.97
2022-07-30T16:54:59.912Z,98960.75
2022-07-30T16:57:27.608Z,98976.69
2022-07-30T16:59:54.289Z,98970.34
2022-07-30T17:02:21.018Z,98973.31
2022-07-30T17:04:47.757Z,98965.19
2022-07-30T17:07:14.692Z,98973.13
2022-07-30T17:09:41.409Z,98965.94
2022-07-30T17:12:10.911Z,98960.19
2022-07-30T17:14:41.184Z,98968.84
2022-07-30T17:17:13.850Z,98971.47
2022-07-30T17:19:42.566Z,98979.94
2022-07-30T17:22:09.368Z,98979.47
2022-07-30T17:24:36.244Z,98979.38
2022-07-30T17:27:03.029Z,98985.41
2022-07-30T17:29:29.805Z,98984.00
2022-07-30T17:31:56.552Z,98986.84
2022-07-30T17:34:23.369Z,98985.44
2022-07-30T17:36:51.621Z,98985.47
2022-07-30T17:40:04.316Z,98984.47
2022-07-30T17:42:11.009Z,98989.44
2022-07-30T17:44:39.942Z,98994.72
2022-07-30T17:47:10.965Z,98985.78
2022-07-30T17:49:41.181Z,98993.56
2022-07-30T17:52:08.795Z,98992.16
2022-07-30T17:54:35.610Z,98983.31
2022-07-30T17:57:02.394Z,98987.28
2022-07-30T17:59:29.146Z,98994.88
2022-07-30T18:01:56.073Z,98998.50
2022-07-30T18:04:22.762Z,98999.91
2022-07-30T18:06:50.653Z,99004.63
2022-07-30T18:09:17.673Z,99008.50
2022-07-30T18:11:45.070Z,99002.59
2022-07-30T18:14:11.818Z,98997.84
2022-07-30T18:16:38.602Z,99002.59
2022-07-30T18:19:05.401Z,99003.78
2022-07-30T18:21:32.053Z,99009.13
2022-07-30T18:24:04.785Z,99005.94
2022-07-30T18:26:38.529Z,99007.34
2022-07-30T18:29:08.896Z,99009.19
2022-07-30T18:31:38.857Z,99002.06
2022-07-30T18:34:05.654Z,99009.63
2022-07-30T18:36:32.326Z,99013.50
2022-07-30T18:38:59.062Z,99019.66
2022-07-30T18:41:25.769Z,99019.91
2022-07-30T18:43:52.418Z,99023.63
2022-07-30T18:46:19.173Z,99026.56
2022-07-30T18:48:46.895Z,99020.84
2022-07-30T18:51:14.297Z,99031.25
2022-07-30T18:53:42.174Z,99039.41
2022-07-30T18:56:09.256Z,99044.22
2022-07-30T18:58:37.843Z,99045.13
2022-07-30T19:01:05.184Z,99041.09
2022-07-30T19:03:32.451Z,99046.28
2022-07-30T19:05:59.098Z,99054.41
2022-07-30T19:08:25.879Z,99055.03
2022-07-30T19:10:52.638Z,99060.47
2022-07-30T19:13:19.869Z,99056.03
2022-07-30T19:15:50.854Z,99050.31
2022-07-30T19:18:17.694Z,99051.84
2022-07-30T19:20:44.390Z,99068.31
2022-07-30T19:23:12.170Z,99059.56
2022-07-30T19:25:39.158Z,99060.22
2022-07-30T19:28:06.366Z,99072.97
2022-07-30T19:30:38.234Z,99068.69
2022-07-30T19:33:15.110Z,99072.34
2022-07-30T19:35:42.997Z,99082.88
2022-07-30T19:38:14.468Z,99079.53
2022-07-30T19:40:49.708Z,99089.69
2022-07-30T19:43:16.438Z,99088.69
2022-07-30T19:45:47.537Z,99096.88
2022-07-30T19:48:29.714Z,99099.63
2022-07-30T19:50:59.022Z,99102.13
2022-07-30T19:53:26.115Z,99101.31
2022-07-30T19:55:54.780Z,99096.75
2022-07-30T19:58:22.002Z,99098.06
2022-07-30T20:00:51.650Z,99098.25
2022-07-30T20:03:26.234Z,99102.63
2022-07-30T20:06:00.355Z,99098.16
2022-07-30T20:08:29.851Z,99098.25
2022-07-30T20:10:57.582Z,99099.72
2022-07-30T20:13:45.057Z,99092.16
2022-07-30T20:16:14.865Z,99097.94
2022-07-30T20:18:42.927Z,99102.00
2022-07-30T20:21:15.011Z,99106.75
2022-07-30T20:23:44.673Z,99108.25
2022-07-30T20:26:14.081Z,99102.09
2022-07-30T20:28:43.757Z,99106.59
2022-07-30T20:31:12.909Z,99104.56
2022-07-30T20:33:40.090Z,99106.38
2022-07-30T20:36:09.680Z,99106.13
2022-07-30T20:38:38.722Z,99108.75
2022-07-30T20:41:10.132Z,99105.28
2022-07-30T20:43:45.861Z,99113.66
2022-07-30T20:46:20.456Z,99101.50
2022-07-30T20:48:49.744Z,99104.31
2022-07-30T20:51:16.441Z,99099.88
2022-07-30T20:53:45.314Z,99103.47
2022-07-30T20:56:13.408Z,99110.31
2022-07-30T20:58:40.837Z,99107.78
2022-07-30T21:01:07.767Z,99111.41
2022-07-30T21:03:34.514Z,99115.91
2022-07-30T21:06:03.365Z,99115.34
2022-07-30T21:08:31.354Z,99118.38
2022-07-30T21:11:00.131Z,99117.50
2022-07-30T21:13:27.205Z,99108.16
2022-07-30T21:16:01.797Z,99109.59
2022-07-30T21:18:30.981Z,99113.28
2022-07-30T21:20:57.818Z,99112.75
2022-07-30T21:23:25.899Z,99109.97
2022-07-30T21:26:01.389Z,99113.91
2022-07-30T21:28:35.909Z,99113.91
2022-07-30T21:31:04.053Z,99116.59
2022-07-30T21:33:37.552Z,99118.19
2022-07-30T21:36:10.464Z,99113.91
2022-07-30T21:38:41.847Z,99110.59
2022-07-30T21:41:14.092Z,99116.34
2022-07-30T21:43:44.976Z,99112.16
2022-07-30T21:46:13.559Z,99112.22
2022-07-30T21:48:43.001Z,99123.28
2022-07-30T21:51:12.113Z,99121.22
2022-07-30T21:53:45.850Z,99124.41
2022-07-30T21:56:16.179Z,99119.28
2022-07-30T21:58:43.987Z,99122.25
2022-07-30T22:01:17.735Z,99116.53
2022-07-30T22:04:04.192Z,99127.91
2022-07-30T22:06:39.324Z,99131.56
2022-07-30T22:09:20.501Z,99131.84
2022-07-30T22:11:56.347Z,99129.75
2022-07-30T22:14:25.517Z,99129.66
2022-07-30T22:16:52.629Z,99134.66
2022-07-30T22:19:21.594Z,99121.91
2022-07-30T22:21:49.634Z,99123.19
2022-07-30T22:24:28.741Z,99121.28
2022-07-30T22:26:59.976Z,99115.59
2022-07-30T22:29:34.063Z,99119.66
2022-07-30T22:32:03.945Z,99120.78
2022-07-30T22:34:31.074Z,99116.78
2022-07-30T22:36:57.812Z,99117.41
2022-07-30T22:39:31.675Z,99125.09
2022-07-30T22:42:12.672Z,99125.78
2022-07-30T22:44:39.586Z,99123.81
2022-07-30T22:47:21.194Z,99120.72
2022-07-30T22:49:59.077Z,99118.59
2022-07-30T22:52:29.827Z,99115.41
2022-07-30T22:55:08.483Z,99107.31
2022-07-30T22:57:37.707Z,99115.72
2022-07-30T23:00:14.322Z,99110.63
2022-07-30T23:02:54.364Z,99105.50
2022-07-30T23:05:23.141Z,99110.63
2022-07-30T23:07:50.597Z,99112.00
2022-07-30T23:10:18.586Z,99109.31
2022-07-30T23:12:50.954Z,99105.97
2022-07-30T23:15:19.629Z,99114.97
2022-07-30T23:17:46.523Z,99111.22
2022-07-30T23:20:17.068Z,99110.81
2022-07-30T23:22:43.925Z,99110.41
2022-07-30T23:25:11.936Z,99104.13
2022-07-30T23:27:39.257Z,99112.34
2022-07-30T23:30:08.327Z,99112.66
2022-07-30T23:32:35.595Z,99106.75
2022-07-30T23:35:02.620Z,99113.69
2022-07-30T23:37:29.370Z,99115.47
2022-07-30T23:40:14.682Z,99109.22
2022-07-30T23:42:41.368Z,99112.31
2022-07-30T23:45:08.389Z,99109.91
2022-07-30T23:48:00.668Z,99106.53
2022-07-30T23:50:22.159Z,99102.09
2022-07-30T23:52:48.764Z,99102.28
2022-07-30T23:55:15.703Z,99108.06
2022-07-30T23:57:42.363Z,99094.72
